createdAt,value
2024-03-10T00:00:01.910Z,93661.00
2024-03-10T00:01:01.914Z,93667.00
2024-03-10T00:02:02.043Z,93685.00
2024-03-10T00:03:02.081Z,93679.00
2024-03-10T00:04:01.917Z,93657.00
2024-03-10T00:05:01.950Z,93654.00
2024-03-10T00:06:01.876Z,93648.00
2024-03-10T00:07:01.987Z,93658.00
2024-03-10T00:08:01.876Z,93649.00
2024-03-10T00:09:01.875Z,93654.00
2024-03-10T00:10:01.845Z,93650.00
2024-03-10T00:11:01.890Z,93634.00
2024-03-10T00:12:01.911Z,93621.00
2024-03-10T00:13:01.823Z,93633.00
2024-03-10T00:14:01.882Z,93633.00
2024-03-10T00:15:01.817Z,93632.00
2024-03-10T00:16:01.805Z,93624.00
2024-03-10T00:17:01.834Z,93621.00
2024-03-10T00:18:01.910Z,93613.00
2024-03-10T00:19:01.773Z,93617.00
2024-03-10T00:20:01.925Z,93605.00
2024-03-10T00:21:01.800Z,93607.00
2024-03-10T00:22:01.752Z,93607.00
2024-03-10T00:23:01.856Z,93623.00
2024-03-10T00:24:01.759Z,93609.00
2024-03-10T00:25:01.799Z,93609.00
2024-03-10T00:26:01.824Z,93608.00
2024-03-10T00:27:01.777Z,93609.00
2024-03-10T00:28:01.740Z,93603.00
2024-03-10T00:29:01.782Z,93586.00
2024-03-10T00:30:01.756Z,93600.00
2024-03-10T00:31:01.734Z,93588.00
2024-03-10T00:32:01.833Z,93573.00
2024-03-10T00:33:01.936Z,93588.00
2024-03-10T00:34:02.019Z,93584.00
2024-03-10T00:35:02.071Z,93611.00
2024-03-10T00:36:02.133Z,93607.00
2024-03-10T00:37:02.232Z,93597.00
2024-03-10T00:38:02.366Z,93593.00
2024-03-10T00:39:02.442Z,93592.00
2024-03-10T00:40:02.582Z,93570.00
2024-03-10T00:41:02.573Z,93571.00
2024-03-10T00:42:02.640Z,93576.00
2024-03-10T00:43:02.690Z,93570.00
2024-03-10T00:44:02.793Z,93568.00
2024-03-10T00:45:02.834Z,93579.00
2024-03-10T00:46:02.898Z,93596.00
2024-03-10T00:47:03.026Z,93558.00
2024-03-10T00:48:03.076Z,93554.00
2024-03-10T00:49:03.159Z,93563.00
2024-03-10T00:50:03.329Z,93568.00
2024-03-10T00:51:03.330Z,93560.00
2024-03-10T00:52:03.381Z,93562.00
2024-03-10T00:53:03.569Z,93568.00
2024-03-10T00:54:03.569Z,93551.00
2024-03-10T00:55:03.643Z,93555.00
2024-03-10T00:56:03.771Z,93576.00
2024-03-10T00:57:03.847Z,93566.00
2024-03-10T00:58:03.869Z,93569.00
2024-03-10T00:59:03.972Z,93570.00
2024-03-10T01:00:04.028Z,93579.00
2024-03-10T01:01:04.144Z,93551.00
2024-03-10T01:02:04.213Z,93560.00
2024-03-10T01:03:04.255Z,93555.00
2024-03-10T01:04:04.320Z,93539.00
2024-03-10T01:05:04.448Z,93538.00
2024-03-10T01:06:04.480Z,93554.00
2024-03-10T01:07:04.589Z,93550.00
2024-03-10T01:08:04.688Z,93557.00
2024-03-10T01:09:04.717Z,93551.00
2024-03-10T01:10:04.834Z,93572.00
2024-03-10T01:11:04.914Z,93572.00
2024-03-10T01:12:05.000Z,93572.00
2024-03-10T01:13:04.999Z,93554.00
2024-03-10T01:14:05.121Z,93568.00
2024-03-10T01:15:05.170Z,93551.00
2024-03-10T01:16:05.257Z,93541.00
2024-03-10T01:17:05.400Z,93546.00
2024-03-10T01:18:05.449Z,93568.00
2024-03-10T01:19:05.506Z,93552.00
2024-03-10T01:20:05.782Z,93561.00
2024-03-10T01:21:05.695Z,93578.00
2024-03-10T01:22:20.286Z,93547.00
2024-03-10T01:23:20.403Z,93569.00
2024-03-10T01:24:20.368Z,93534.00
2024-03-10T01:25:20.375Z,93567.00
2024-03-10T01:26:20.398Z,93556.00
2024-03-10T01:27:20.376Z,93534.00
2024-03-10T01:28:20.362Z,93570.00
2024-03-10T01:29:20.469Z,93546.00
2024-03-10T01:30:20.421Z,93542.00
2024-03-10T01:31:20.453Z,93525.00
2024-03-10T01:32:20.550Z,93530.00
2024-03-10T01:33:20.562Z,93542.00
2024-03-10T01:34:20.667Z,93547.00
2024-03-10T01:35:20.570Z,93533.00
2024-03-10T01:36:20.482Z,93529.00
2024-03-10T01:37:20.539Z,93545.00
2024-03-10T01:38:20.780Z,93535.00
2024-03-10T01:39:20.584Z,93494.00
2024-03-10T01:40:20.595Z,93498.00
2024-03-10T01:41:20.687Z,93509.00
2024-03-10T01:42:20.672Z,93494.00
2024-03-10T01:43:20.711Z,93516.00
2024-03-10T01:44:20.720Z,93468.00
2024-03-10T01:45:20.745Z,93499.00
2024-03-10T01:46:20.704Z,93514.00
2024-03-10T01:47:20.778Z,93489.00
2024-03-10T01:48:20.815Z,93475.00
2024-03-10T01:49:20.859Z,93500.00
2024-03-10T01:50:20.841Z,93462.00
2024-03-10T01:51:20.833Z,93496.00
2024-03-10T01:52:20.871Z,93469.00
2024-03-10T01:53:21.056Z,93474.00
2024-03-10T01:54:21.077Z,93461.00
2024-03-10T01:55:21.252Z,93473.00
2024-03-10T01:56:21.542Z,93470.00
2024-03-10T01:57:21.544Z,93479.00
2024-03-10T01:58:21.566Z,93477.00
2024-03-10T01:59:21.794Z,93422.00
2024-03-10T02:00:21.827Z,93477.00
2024-03-10T02:01:22.043Z,93482.00
2024-03-10T02:02:22.149Z,93469.00
2024-03-10T02:03:22.298Z,93447.00
2024-03-10T02:04:22.438Z,93451.00
2024-03-10T02:05:22.558Z,93469.00
2024-03-10T02:06:22.687Z,93434.00
2024-03-10T02:07:22.826Z,93435.00
2024-03-10T02:08:23.130Z,93437.00
2024-03-10T02:09:23.160Z,93450.00
2024-03-10T02:10:23.242Z,93442.00
2024-03-10T02:11:23.504Z,93431.00
2024-03-10T02:12:23.543Z,93427.00
2024-03-10T02:13:23.744Z,93420.00
2024-03-10T02:14:23.907Z,93439.00
2024-03-10T02:15:23.968Z,93425.00
2024-03-10T02:16:24.124Z,93427.00
2024-03-10T02:17:24.248Z,93426.00
2024-03-10T02:18:24.407Z,93419.00
2024-03-10T02:19:24.619Z,93412.00
2024-03-10T02:20:24.806Z,93417.00
2024-03-10T02:21:24.826Z,93410.00
2024-03-10T02:22:24.945Z,93402.00
2024-03-10T02:23:25.235Z,93415.00
2024-03-10T02:24:25.200Z,93409.00
2024-03-10T02:25:25.332Z,93425.00
2024-03-10T02:26:25.529Z,93402.00
2024-03-10T02:27:25.548Z,93400.00
2024-03-10T02:28:25.693Z,93427.00
2024-03-10T02:29:25.895Z,93411.00
2024-03-10T02:30:25.889Z,93402.00
2024-03-10T02:31:26.020Z,93387.00
2024-03-10T02:32:26.270Z,93404.00
2024-03-10T02:33:26.310Z,93399.00
2024-03-10T02:34:26.351Z,93381.00
2024-03-10T02:35:26.581Z,93394.00
2024-03-10T02:36:26.507Z,93401.00
2024-03-10T02:37:26.654Z,93389.00
2024-03-10T02:38:26.779Z,93374.00
2024-03-10T02:39:26.900Z,93410.00
2024-03-10T02:40:26.886Z,93405.00
2024-03-10T02:41:27.074Z,93398.00
2024-03-10T02:42:27.124Z,93387.00
2024-03-10T02:43:27.215Z,93379.00
2024-03-10T02:44:27.376Z,93385.00
2024-03-10T02:45:27.411Z,93387.00
2024-03-10T02:46:27.479Z,93374.00
2024-03-10T02:47:27.676Z,93372.00
2024-03-10T02:48:27.753Z,93379.00
2024-03-10T02:49:27.804Z,93384.00
2024-03-10T02:50:28.043Z,93383.00
2024-03-10T02:51:28.096Z,93399.00
2024-03-10T02:52:28.209Z,93397.00
2024-03-10T02:53:28.377Z,93370.00
2024-03-10T02:54:28.432Z,93376.00
2024-03-10T02:55:28.595Z,93386.00
2024-03-10T02:56:28.740Z,93366.00
2024-03-10T02:57:28.800Z,93370.00
2024-03-10T02:58:28.978Z,93350.00
2024-03-10T02:59:29.103Z,93378.00
2024-03-10T03:00:29.209Z,93382.00
2024-03-10T03:01:29.377Z,93375.00
2024-03-10T03:02:29.521Z,93344.00
2024-03-10T03:03:29.638Z,93361.00
2024-03-10T03:04:29.844Z,93361.00
2024-03-10T03:05:29.979Z,93376.00
2024-03-10T03:06:30.015Z,93357.00
2024-03-10T03:07:30.125Z,93365.00
2024-03-10T03:08:30.283Z,93376.00
2024-03-10T03:09:30.430Z,93368.00
2024-03-10T03:10:30.540Z,93368.00
2024-03-10T03:11:30.724Z,93363.00
2024-03-10T03:12:30.859Z,93364.00
2024-03-10T03:13:30.948Z,93369.00
2024-03-10T03:14:31.143Z,93362.00
2024-03-10T03:15:31.241Z,93349.00
2024-03-10T03:16:31.491Z,93339.00
2024-03-10T03:17:31.612Z,93338.00
2024-03-10T03:18:31.606Z,93356.00
2024-03-10T03:19:31.739Z,93352.00
2024-03-10T03:20:32.041Z,93355.00
2024-03-10T03:21:32.004Z,93352.00
2024-03-10T03:22:32.143Z,93331.00
2024-03-10T03:23:32.373Z,93343.00
2024-03-10T03:24:32.391Z,93337.00
2024-03-10T03:25:32.549Z,93335.00
2024-03-10T03:26:32.718Z,93369.00
2024-03-10T03:27:32.773Z,93344.00
2024-03-10T03:28:32.896Z,93360.00
2024-03-10T03:29:33.101Z,93361.00
2024-03-10T03:30:33.188Z,93373.00
2024-03-10T03:31:33.288Z,93366.00
2024-03-10T03:32:33.477Z,93367.00
2024-03-10T03:33:33.578Z,93363.00
2024-03-10T03:34:33.721Z,93361.00
2024-03-10T03:35:33.886Z,93368.00
2024-03-10T03:36:33.999Z,93340.00
2024-03-10T03:37:34.156Z,93333.00
2024-03-10T03:38:34.303Z,93356.00
2024-03-10T03:39:34.454Z,93365.00
2024-03-10T03:40:34.553Z,93352.00
2024-03-10T03:41:34.739Z,93350.00
2024-03-10T03:42:34.899Z,93331.00
2024-03-10T03:43:35.033Z,93351.00
2024-03-10T03:44:35.130Z,93335.00
2024-03-10T03:45:35.316Z,93370.00
2024-03-10T03:46:35.434Z,93341.00
2024-03-10T03:47:35.669Z,93338.00
2024-03-10T03:48:35.691Z,93336.00
2024-03-10T03:49:35.857Z,93343.00
2024-03-10T03:50:36.002Z,93326.00
2024-03-10T03:51:36.107Z,93354.00
2024-03-10T03:52:36.252Z,93308.00
2024-03-10T03:53:36.447Z,93323.00
2024-03-10T03:54:36.525Z,93317.00
2024-03-10T03:55:36.657Z,93330.00
2024-03-10T03:56:36.836Z,93319.00
2024-03-10T03:57:37.941Z,93278.00
2024-03-10T03:58:37.078Z,93300.00
2024-03-10T03:59:37.224Z,93334.00
2024-03-10T04:00:37.426Z,93298.00
2024-03-10T04:01:37.551Z,93297.00
2024-03-10T04:02:37.662Z,93308.00
2024-03-10T04:03:37.819Z,93288.00
2024-03-10T04:04:37.926Z,93284.00
2024-03-10T04:05:38.087Z,93303.00
2024-03-10T04:06:38.207Z,93295.00
2024-03-10T04:07:38.338Z,93295.00
2024-03-10T04:08:38.522Z,93281.00
2024-03-10T04:09:38.684Z,93289.00
2024-03-10T04:10:38.768Z,93288.00
2024-03-10T04:11:39.010Z,93286.00
2024-03-10T04:12:39.116Z,93294.00
2024-03-10T04:13:39.222Z,93265.00
2024-03-10T04:14:39.380Z,93274.00
2024-03-10T04:15:39.522Z,93289.00
2024-03-10T04:16:39.654Z,93287.00
2024-03-10T04:17:39.888Z,93258.00
2024-03-10T04:18:39.962Z,93263.00
2024-03-10T04:19:40.123Z,93274.00
2024-03-10T04:20:40.252Z,93264.00
2024-03-10T04:21:40.413Z,93269.00
2024-03-10T04:22:40.554Z,93284.00
2024-03-10T04:23:40.720Z,93272.00
2024-03-10T04:24:40.955Z,93259.00
2024-03-10T04:25:40.957Z,93256.00
2024-03-10T04:26:41.132Z,93274.00
2024-03-10T04:27:41.278Z,93272.00
2024-03-10T04:28:41.422Z,93262.00
2024-03-10T04:29:48.605Z,93275.00
2024-03-10T04:30:48.564Z,93293.00
2024-03-10T04:31:55.778Z,93264.00
2024-03-10T04:32:55.776Z,93270.00
2024-03-10T04:33:55.793Z,93259.00
2024-03-10T04:34:55.915Z,93238.00
2024-03-10T04:35:55.753Z,93262.00
2024-03-10T04:36:55.740Z,93255.00
2024-03-10T04:37:55.820Z,93258.00
2024-03-10T04:38:55.823Z,93243.00
2024-03-10T04:39:55.795Z,93252.00
2024-03-10T04:40:55.781Z,93246.00
2024-03-10T04:41:55.761Z,93229.00
2024-03-10T04:42:55.790Z,93230.00
2024-03-10T04:43:55.838Z,93244.00
2024-03-10T04:44:55.820Z,93238.00
2024-03-10T04:45:55.801Z,93241.00
2024-03-10T04:46:55.929Z,93214.00
2024-03-10T04:47:55.888Z,93218.00
2024-03-10T04:48:55.830Z,93232.00
2024-03-10T04:49:55.890Z,93243.00
2024-03-10T04:50:55.860Z,93208.00
2024-03-10T04:51:55.865Z,93222.00
2024-03-10T04:52:55.879Z,93232.00
2024-03-10T04:53:55.882Z,93231.00
2024-03-10T04:54:55.849Z,93214.00
2024-03-10T04:55:55.949Z,93221.00
2024-03-10T04:56:55.888Z,93209.00
2024-03-10T04:57:55.880Z,93229.00
2024-03-10T04:58:55.938Z,93239.00
2024-03-10T04:59:55.916Z,93205.00
2024-03-10T05:00:55.990Z,93216.00
2024-03-10T05:01:55.931Z,93208.00
2024-03-10T05:02:55.902Z,93227.00
2024-03-10T05:03:55.937Z,93244.00
2024-03-10T05:04:55.961Z,93223.00
2024-03-10T05:05:55.970Z,93242.00
2024-03-10T05:06:56.044Z,93250.00
2024-03-10T05:07:56.266Z,93230.00
2024-03-10T05:08:56.262Z,93234.00
2024-03-10T05:09:56.325Z,93250.00
2024-03-10T05:10:56.540Z,93221.00
2024-03-10T05:11:56.637Z,93243.00
2024-03-10T05:12:56.605Z,93231.00
2024-03-10T05:13:56.765Z,93199.00
2024-03-10T05:14:56.801Z,93224.00
2024-03-10T05:15:56.891Z,93220.00
2024-03-10T05:16:56.971Z,93220.00
2024-03-10T05:17:57.077Z,93232.00
2024-03-10T05:18:57.167Z,93217.00
2024-03-10T05:19:57.239Z,93209.00
2024-03-10T05:20:57.298Z,93224.00
2024-03-10T05:21:57.370Z,93224.00
2024-03-10T05:22:57.529Z,93199.00
2024-03-10T05:23:57.561Z,93195.00
2024-03-10T05:24:57.633Z,93229.00
2024-03-10T05:25:57.704Z,93222.00
2024-03-10T05:26:57.773Z,93195.00
2024-03-10T05:27:57.849Z,93204.00
2024-03-10T05:28:57.977Z,93198.00
2024-03-10T05:29:58.053Z,93204.00
2024-03-10T05:30:58.124Z,93197.00
2024-03-10T05:31:58.295Z,93203.00
2024-03-10T05:32:58.374Z,93210.00
2024-03-10T05:33:58.403Z,93213.00
2024-03-10T05:34:58.526Z,93225.00
2024-03-10T05:35:58.577Z,93223.00
2024-03-10T05:36:58.660Z,93218.00
2024-03-10T05:37:58.751Z,93220.00
2024-03-10T05:38:58.843Z,93223.00
2024-03-10T05:39:58.877Z,93224.00
2024-03-10T05:40:59.089Z,93222.00
2024-03-10T05:41:59.077Z,93234.00
2024-03-10T05:42:59.161Z,93221.00
2024-03-10T05:43:59.264Z,93225.00
2024-03-10T05:44:59.303Z,93217.00
2024-03-10T05:45:59.417Z,93214.00
2024-03-10T05:47:01.091Z,93216.00
2024-03-10T05:47:59.531Z,93215.00
2024-03-10T05:48:59.570Z,93214.00
2024-03-10T05:49:59.538Z,93221.00
2024-03-10T05:50:59.495Z,93225.00
2024-03-10T05:51:59.524Z,93216.00
2024-03-10T05:52:59.544Z,93189.00
2024-03-10T05:53:59.494Z,93200.00
2024-03-10T05:54:59.497Z,93187.00
2024-03-10T05:55:59.577Z,93220.00
2024-03-10T05:56:59.501Z,93192.00
2024-03-10T05:57:59.511Z,93194.00
2024-03-10T05:58:59.550Z,93206.00
2024-03-10T05:59:59.562Z,93191.00
2024-03-10T06:00:59.548Z,93265.00
2024-03-10T06:01:59.572Z,93208.00
2024-03-10T06:02:59.542Z,93198.00
2024-03-10T06:03:59.548Z,93209.00
2024-03-10T06:04:59.589Z,93210.00
2024-03-10T06:06:01.278Z,93207.00
2024-03-10T06:06:59.546Z,93215.00
2024-03-10T06:07:59.594Z,93213.00
2024-03-10T06:08:59.546Z,93212.00
2024-03-10T06:09:59.541Z,93252.00
2024-03-10T06:10:59.716Z,93202.00
2024-03-10T06:11:59.666Z,93193.00
2024-03-10T06:12:59.565Z,93214.00
2024-03-10T06:13:59.566Z,93213.00
2024-03-10T06:14:59.522Z,93234.00
2024-03-10T06:15:59.528Z,93211.00
2024-03-10T06:16:59.671Z,93210.00
2024-03-10T06:17:59.561Z,93201.00
2024-03-10T06:18:59.578Z,93223.00
2024-03-10T06:19:59.608Z,93202.00
2024-03-10T06:20:59.618Z,93245.00
2024-03-10T06:21:59.674Z,93225.00
2024-03-10T06:22:59.745Z,93214.00
2024-03-10T06:23:59.818Z,93216.00
2024-03-10T06:24:59.865Z,93233.00
2024-03-10T06:25:59.967Z,93233.00
2024-03-10T06:27:00.023Z,93217.00
2024-03-10T06:28:00.092Z,93222.00
2024-03-10T06:29:00.277Z,93215.00
2024-03-10T06:30:00.393Z,93217.00
2024-03-10T06:31:00.393Z,93232.00
2024-03-10T06:32:00.574Z,93243.00
2024-03-10T06:33:00.540Z,93246.00
2024-03-10T06:34:00.574Z,93205.00
2024-03-10T06:35:00.735Z,93247.00
2024-03-10T06:36:00.743Z,93229.00
2024-03-10T06:37:00.824Z,93223.00
2024-03-10T06:38:00.909Z,93236.00
2024-03-10T06:39:00.951Z,93266.00
2024-03-10T06:40:00.999Z,93224.00
2024-03-10T06:41:01.125Z,93232.00
2024-03-10T06:42:01.189Z,93231.00
2024-03-10T06:43:01.240Z,93244.00
2024-03-10T06:44:01.385Z,93243.00
2024-03-10T06:45:01.418Z,93244.00
2024-03-10T06:46:01.506Z,93267.00
2024-03-10T06:47:01.617Z,93240.00
2024-03-10T06:48:01.685Z,93247.00
2024-03-10T06:49:01.717Z,93232.00
2024-03-10T06:50:01.935Z,93262.00
2024-03-10T06:51:01.947Z,93236.00
2024-03-10T06:52:01.989Z,93265.00
2024-03-10T06:53:02.046Z,93241.00
2024-03-10T06:54:02.107Z,93225.00
2024-03-10T06:55:02.202Z,93235.00
2024-03-10T06:56:02.770Z,93226.00
2024-03-10T06:57:02.380Z,93249.00
2024-03-10T06:58:02.519Z,93240.00
2024-03-10T06:59:02.623Z,93248.00
2024-03-10T07:00:02.892Z,93254.00
2024-03-10T07:01:02.673Z,93218.00
2024-03-10T07:02:02.805Z,93257.00
2024-03-10T07:03:02.869Z,93255.00
2024-03-10T07:04:02.946Z,93213.00
2024-03-10T07:05:03.049Z,93224.00
2024-03-10T07:06:03.587Z,93260.00
2024-03-10T07:07:03.362Z,93219.00
2024-03-10T07:08:03.335Z,93233.00
2024-03-10T07:09:03.336Z,93219.00
2024-03-10T07:10:03.460Z,93217.00
2024-03-10T07:11:03.588Z,93233.00
2024-03-10T07:12:03.778Z,93216.00
2024-03-10T07:13:03.715Z,93205.00
2024-03-10T07:14:03.921Z,93208.00
2024-03-10T07:15:03.875Z,93197.00
2024-03-10T07:16:04.020Z,93219.00
2024-03-10T07:17:04.095Z,93202.00
2024-03-10T07:18:04.150Z,93207.00
2024-03-10T07:19:04.250Z,93244.00
2024-03-10T07:20:04.412Z,93224.00
2024-03-10T07:21:04.371Z,93208.00
2024-03-10T07:22:04.472Z,93223.00
2024-03-10T07:23:04.635Z,93214.00
2024-03-10T07:24:04.709Z,93234.00
2024-03-10T07:25:04.773Z,93218.00
2024-03-10T07:26:04.896Z,93225.00
2024-03-10T07:27:04.930Z,93200.00
2024-03-10T07:28:05.035Z,93207.00
2024-03-10T07:29:05.209Z,93190.00
2024-03-10T07:30:05.201Z,93213.00
2024-03-10T07:31:05.259Z,93218.00
2024-03-10T07:32:05.418Z,93170.00
2024-03-10T07:33:05.480Z,93210.00
2024-03-10T07:34:05.574Z,93206.00
2024-03-10T07:35:05.708Z,93189.00
2024-03-10T07:36:05.760Z,93198.00
2024-03-10T07:37:05.855Z,93228.00
2024-03-10T07:38:05.972Z,93239.00
2024-03-10T07:39:06.018Z,93255.00
2024-03-10T07:40:06.088Z,93238.00
2024-03-10T07:41:06.253Z,93231.00
2024-03-10T07:42:06.283Z,93198.00
2024-03-10T07:43:06.467Z,93243.00
2024-03-10T07:44:06.572Z,93227.00
2024-03-10T07:45:06.618Z,93241.00
2024-03-10T07:46:06.766Z,93253.00
2024-03-10T07:47:06.872Z,93228.00
2024-03-10T07:48:07.398Z,93260.00
2024-03-10T07:49:07.088Z,93255.00
2024-03-10T07:50:07.210Z,93239.00
2024-03-10T07:51:07.282Z,93247.00
2024-03-10T07:52:07.394Z,93249.00
2024-03-10T07:53:07.502Z,93211.00
2024-03-10T07:54:07.593Z,93246.00
2024-03-10T07:55:07.702Z,93227.00
2024-03-10T07:56:07.847Z,93212.00
2024-03-10T07:57:07.909Z,93213.00
2024-03-10T07:58:08.052Z,93204.00
2024-03-10T07:59:08.181Z,93221.00
2024-03-10T08:00:08.232Z,93222.00
2024-03-10T08:01:08.400Z,93233.00
2024-03-10T08:02:08.474Z,93209.00
2024-03-10T08:03:08.557Z,93232.00
2024-03-10T08:04:08.664Z,93199.00
2024-03-10T08:05:08.809Z,93219.00
2024-03-10T08:06:08.891Z,93209.00
2024-03-10T08:07:09.033Z,93205.00
2024-03-10T08:08:09.113Z,93220.00
2024-03-10T08:09:09.222Z,93216.00
2024-03-10T08:10:09.309Z,93211.00
2024-03-10T08:11:09.503Z,93219.00
2024-03-10T08:12:09.794Z,93231.00
2024-03-10T08:13:09.660Z,93230.00
2024-03-10T08:14:09.765Z,93242.00
2024-03-10T08:15:09.813Z,93238.00
2024-03-10T08:16:09.951Z,93210.00
2024-03-10T08:17:10.014Z,93211.00
2024-03-10T08:18:10.168Z,93225.00
2024-03-10T08:19:10.216Z,93226.00
2024-03-10T08:20:10.385Z,93222.00
2024-03-10T08:21:10.432Z,93238.00
2024-03-10T08:22:10.461Z,93225.00
2024-03-10T08:23:10.664Z,93215.00
2024-03-10T08:24:10.749Z,93204.00
2024-03-10T08:25:10.820Z,93220.00
2024-03-10T08:26:11.141Z,93195.00
2024-03-10T08:27:10.982Z,93208.00
2024-03-10T08:28:11.055Z,93228.00
2024-03-10T08:29:11.244Z,93233.00
2024-03-10T08:30:11.579Z,93225.00
2024-03-10T08:31:11.389Z,93233.00
2024-03-10T08:32:11.561Z,93205.00
2024-03-10T08:33:11.654Z,93217.00
2024-03-10T08:34:11.635Z,93225.00
2024-03-10T08:35:16.278Z,93207.00
2024-03-10T08:36:12.755Z,93209.00
2024-03-10T08:37:11.755Z,93221.00
2024-03-10T08:38:11.808Z,93215.00
2024-03-10T08:39:11.793Z,93216.00
2024-03-10T08:40:11.815Z,93200.00
2024-03-10T08:41:11.829Z,93215.00
2024-03-10T08:42:11.785Z,93192.00
2024-03-10T08:43:11.807Z,93216.00
2024-03-10T08:44:11.848Z,93186.00
2024-03-10T08:45:12.252Z,93202.00
2024-03-10T08:46:11.853Z,93215.00
2024-03-10T08:47:11.975Z,93218.00
2024-03-10T08:48:11.949Z,93176.00
2024-03-10T08:49:12.008Z,93170.00
2024-03-10T08:50:12.212Z,93190.00
2024-03-10T08:51:12.129Z,93222.00
2024-03-10T08:52:12.182Z,93200.00
2024-03-10T08:53:12.201Z,93178.00
2024-03-10T08:54:12.263Z,93165.00
2024-03-10T08:55:12.298Z,93174.00
2024-03-10T08:56:12.493Z,93154.00
2024-03-10T08:57:12.420Z,93198.00
2024-03-10T08:58:12.436Z,93205.00
2024-03-10T08:59:12.557Z,93176.00
2024-03-10T09:00:12.663Z,93189.00
2024-03-10T09:01:12.771Z,93179.00
2024-03-10T09:02:12.897Z,93180.00
2024-03-10T09:03:12.956Z,93179.00
2024-03-10T09:04:13.059Z,93211.00
2024-03-10T09:05:13.169Z,93174.00
2024-03-10T09:06:13.262Z,93161.00
2024-03-10T09:07:13.356Z,93182.00
2024-03-10T09:08:13.459Z,93192.00
2024-03-10T09:09:13.585Z,93185.00
2024-03-10T09:10:13.630Z,93184.00
2024-03-10T09:11:13.831Z,93179.00
2024-03-10T09:12:13.967Z,93193.00
2024-03-10T09:13:13.953Z,93206.00
2024-03-10T09:14:14.103Z,93205.00
2024-03-10T09:15:14.694Z,93157.00
2024-03-10T09:16:14.347Z,93200.00
2024-03-10T09:17:17.966Z,93232.00
2024-03-10T09:18:15.493Z,93161.00
2024-03-10T09:19:14.438Z,93195.00
2024-03-10T09:20:14.795Z,93175.00
2024-03-10T09:21:14.423Z,93185.00
2024-03-10T09:22:14.440Z,93193.00
2024-03-10T09:23:14.546Z,93201.00
2024-03-10T09:24:14.446Z,93169.00
2024-03-10T09:25:14.456Z,93163.00
2024-03-10T09:26:14.539Z,93176.00
2024-03-10T09:27:14.471Z,93191.00
2024-03-10T09:28:14.476Z,93179.00
2024-03-10T09:29:14.516Z,93189.00
2024-03-10T09:30:14.510Z,93159.00
2024-03-10T09:31:14.462Z,93166.00
2024-03-10T09:32:14.459Z,93187.00
2024-03-10T09:33:14.506Z,93181.00
2024-03-10T09:34:14.619Z,93167.00
2024-03-10T09:35:14.724Z,93152.00
2024-03-10T09:36:14.815Z,93168.00
2024-03-10T09:37:14.946Z,93174.00
2024-03-10T09:38:15.061Z,93161.00
2024-03-10T09:39:15.173Z,93189.00
2024-03-10T09:40:15.251Z,93162.00
2024-03-10T09:41:15.401Z,93175.00
2024-03-10T09:42:15.724Z,93183.00
2024-03-10T09:43:15.602Z,93181.00
2024-03-10T09:44:15.753Z,93183.00
2024-03-10T09:45:15.812Z,93209.00
2024-03-10T09:46:15.924Z,93176.00
2024-03-10T09:47:16.109Z,93177.00
2024-03-10T09:48:16.281Z,93182.00
2024-03-10T09:49:16.283Z,93159.00
2024-03-10T09:50:16.487Z,93152.00
2024-03-10T09:51:16.479Z,93171.00
2024-03-10T09:52:16.645Z,93192.00
2024-03-10T09:53:16.729Z,93169.00
2024-03-10T09:54:16.818Z,93193.00
2024-03-10T09:55:16.902Z,93184.00
2024-03-10T09:56:17.064Z,93150.00
2024-03-10T09:57:17.156Z,93170.00
2024-03-10T09:58:26.197Z,93174.00
2024-03-10T09:59:18.289Z,93162.00
2024-03-10T10:00:17.267Z,93151.00
2024-03-10T10:01:17.286Z,93167.00
2024-03-10T10:02:17.281Z,93165.00
2024-03-10T10:03:17.294Z,93172.00
2024-03-10T10:04:17.233Z,93138.00
2024-03-10T10:05:17.239Z,93150.00
2024-03-10T10:06:17.199Z,93133.00
2024-03-10T10:07:17.205Z,93154.00
2024-03-10T10:08:17.424Z,93151.00
2024-03-10T10:09:17.441Z,93145.00
2024-03-10T10:10:17.513Z,93144.00
2024-03-10T10:11:17.738Z,93143.00
2024-03-10T10:12:17.760Z,93134.00
2024-03-10T10:13:17.853Z,93144.00
2024-03-10T10:14:18.112Z,93127.00
2024-03-10T10:15:18.064Z,93133.00
2024-03-10T10:16:18.175Z,93149.00
2024-03-10T10:17:18.355Z,93109.00
2024-03-10T10:18:18.434Z,93160.00
2024-03-10T10:19:18.553Z,93138.00
2024-03-10T10:20:18.629Z,93125.00
2024-03-10T10:21:18.682Z,93143.00
2024-03-10T10:22:18.802Z,93139.00
2024-03-10T10:23:19.058Z,93147.00
2024-03-10T10:24:19.513Z,93141.00
2024-03-10T10:25:19.056Z,93142.00
2024-03-10T10:26:19.093Z,93137.00
2024-03-10T10:27:19.052Z,93123.00
2024-03-10T10:28:19.137Z,93127.00
2024-03-10T10:29:19.211Z,93140.00
2024-03-10T10:30:19.170Z,93122.00
2024-03-10T10:31:19.175Z,93133.00
2024-03-10T10:32:19.235Z,93130.00
2024-03-10T10:33:19.277Z,93112.00
2024-03-10T10:34:21.393Z,93112.00
2024-03-10T10:35:19.375Z,93122.00
2024-03-10T10:36:19.394Z,93085.00
2024-03-10T10:37:19.517Z,93148.00
2024-03-10T10:38:19.494Z,93129.00
2024-03-10T10:39:19.485Z,93069.00
2024-03-10T10:40:19.510Z,93106.00
2024-03-10T10:41:19.549Z,93112.00
2024-03-10T10:42:26.726Z,93110.00
2024-03-10T10:43:20.558Z,93104.00
2024-03-10T10:44:19.586Z,93096.00
2024-03-10T10:45:19.602Z,93093.00
2024-03-10T10:46:19.543Z,93101.00
2024-03-10T10:47:19.642Z,93074.00
2024-03-10T10:48:19.654Z,93053.00
2024-03-10T10:49:19.573Z,93066.00
2024-03-10T10:50:19.624Z,93099.00
2024-03-10T10:51:19.572Z,93088.00
2024-03-10T10:52:19.561Z,93083.00
2024-03-10T10:53:19.609Z,93079.00
2024-03-10T10:54:19.560Z,93084.00
2024-03-10T10:55:19.561Z,93062.00
2024-03-10T10:56:19.633Z,93077.00
2024-03-10T10:57:19.541Z,93048.00
2024-03-10T10:58:19.546Z,93077.00
2024-03-10T10:59:19.619Z,93056.00
2024-03-10T11:00:19.597Z,93069.00
2024-03-10T11:01:19.776Z,93064.00
2024-03-10T11:02:19.829Z,93032.00
2024-03-10T11:03:19.870Z,93014.00
2024-03-10T11:04:20.028Z,93048.00
2024-03-10T11:05:20.189Z,93036.00
2024-03-10T11:06:20.218Z,93011.00
2024-03-10T11:07:20.361Z,93012.00
2024-03-10T11:08:20.449Z,93026.00
2024-03-10T11:09:20.524Z,93042.00
2024-03-10T11:10:20.650Z,93031.00
2024-03-10T11:11:20.814Z,93004.00
2024-03-10T11:12:20.850Z,93041.00
2024-03-10T11:13:20.942Z,93000.00
2024-03-10T11:14:21.056Z,93030.00
2024-03-10T11:15:21.162Z,93036.00
2024-03-10T11:16:21.306Z,93020.00
2024-03-10T11:17:21.499Z,93018.00
2024-03-10T11:18:21.485Z,93033.00
2024-03-10T11:19:21.530Z,93026.00
2024-03-10T11:20:23.735Z,93013.00
2024-03-10T11:21:21.648Z,93048.00
2024-03-10T11:22:21.727Z,93020.00
2024-03-10T11:23:21.633Z,93034.00
2024-03-10T11:24:21.651Z,93019.00
2024-03-10T11:25:21.736Z,93027.00
2024-03-10T11:26:23.877Z,93042.00
2024-03-10T11:27:21.666Z,93062.00
2024-03-10T11:28:21.600Z,93055.00
2024-03-10T11:29:21.668Z,93023.00
2024-03-10T11:30:21.625Z,93052.00
2024-03-10T11:31:21.653Z,93049.00
2024-03-10T11:32:23.613Z,93059.00
2024-03-10T11:33:21.650Z,93056.00
2024-03-10T11:34:21.699Z,93062.00
2024-03-10T11:35:21.840Z,93063.00
2024-03-10T11:36:21.667Z,93044.00
2024-03-10T11:37:21.677Z,93044.00
2024-03-10T11:38:21.733Z,93061.00
2024-03-10T11:39:21.756Z,93059.00
2024-03-10T11:40:21.666Z,93059.00
2024-03-10T11:41:21.716Z,93056.00
2024-03-10T11:42:21.671Z,93051.00
2024-03-10T11:43:21.664Z,93043.00
2024-03-10T11:44:21.708Z,93029.00
2024-03-10T11:45:21.719Z,93048.00